< < Back
Terminal Aerodrome Forecast


Current Version              Previous Versions:   1  2  3  4  5  6  7  8  9  

Terminal Aerodrome Forecast

023
FTUS42 KFFC 010300 AAB
TAFATL
TAF AMD
KATL 010331Z 0104/0206 20003KT P6SM FEW250
     FM011000 20002KT 6SM BR FEW010
     FM011400 20005KT P6SM SCT050
     FM020000 VRB03KT P6SM SKC=

Latest METAR

214
SAUS70 KWBC 010400 RRJ
MTRATL
METAR KATL 010352Z 22004KT 10SM SCT250 20/18 A2994 RMK AO2 SLP132
T02000178


USA.gov is the U.S. government's official web portal to all federal, state and local government web resources and services.